createdAt,value
2018-01-25T00:00:35.586Z,82.70
2018-01-25T00:03:05.779Z,78.60
2018-01-25T00:05:40.236Z,77.70
2018-01-25T00:08:12.918Z,78.90
2018-01-25T00:10:45.378Z,80.40
2018-01-25T00:13:14.795Z,80.70
2018-01-25T00:15:45.429Z,80.90
2018-01-25T00:18:14.036Z,83.40
2018-01-25T00:20:43.315Z,81.60
2018-01-25T00:23:10.854Z,78.70
2018-01-25T00:25:41.506Z,78.80
2018-01-25T00:28:17.378Z,76.90
2018-01-25T00:30:48.847Z,78.90
2018-01-25T00:36:01.560Z,77.90
2018-01-25T00:38:31.593Z,79.40
2018-01-25T00:41:06.293Z,78.40
2018-01-25T00:43:34.100Z,79.20
2018-01-25T00:46:03.594Z,75.80
2018-01-25T00:48:34.904Z,74.20
2018-01-25T00:51:03.370Z,72.00
2018-01-25T00:53:36.200Z,77.10
2018-01-25T00:56:05.416Z,77.10
2018-01-25T00:58:33.965Z,77.10
2018-01-25T01:01:05.359Z,80.70
2018-01-25T01:03:36.578Z,76.80
2018-01-25T01:06:08.074Z,77.70
2018-01-25T01:08:37.070Z,75.20
2018-01-25T01:11:04.755Z,75.50
2018-01-25T01:13:32.431Z,74.10
2018-01-25T01:16:06.689Z,72.70
2018-01-25T01:18:36.131Z,75.10
2018-01-25T01:21:07.639Z,72.60
2018-01-25T01:23:36.274Z,72.50
2018-01-25T01:26:08.961Z,74.30
2018-01-25T01:28:41.578Z,74.10
2018-01-25T01:31:09.868Z,79.10
2018-01-25T01:33:39.837Z,77.50
2018-01-25T01:36:09.589Z,77.20
2018-01-25T01:38:42.275Z,77.20
2018-01-25T01:41:09.938Z,77.90
2018-01-25T01:43:38.670Z,80.90
2018-01-25T01:46:08.285Z,79.50
2018-01-25T01:48:42.756Z,80.90
2018-01-25T01:51:16.803Z,81.60
2018-01-25T01:53:47.057Z,80.50
2018-01-25T01:56:15.719Z,79.10
2018-01-25T01:58:43.426Z,79.10
2018-01-25T02:01:11.817Z,77.50
2018-01-25T02:03:41.448Z,77.50
2018-01-25T02:06:10.066Z,76.30
2018-01-25T02:08:42.059Z,75.60
2018-01-25T02:11:15.658Z,73.90
2018-01-25T02:13:48.764Z,75.30
2018-01-25T02:16:22.760Z,77.30
2018-01-25T02:18:58.474Z,77.70
2018-01-25T02:21:27.364Z,77.60
2018-01-25T02:23:56.086Z,77.10
2018-01-25T02:29:13.751Z,76.80
2018-01-25T02:31:43.306Z,80.40
2018-01-25T02:34:11.537Z,80.00
2018-01-25T02:36:40.422Z,77.60
2018-01-25T02:44:34.639Z,79.50
2018-01-25T02:47:07.199Z,76.50
2018-01-25T02:49:36.838Z,76.70
2018-01-25T02:52:09.934Z,75.80
2018-01-25T02:54:37.516Z,78.80
2018-01-25T02:57:10.691Z,80.80
2018-01-25T02:59:41.587Z,81.90
2018-01-25T03:02:10.710Z,84.10
2018-01-25T03:04:38.490Z,83.40
2018-01-25T03:07:09.618Z,85.40
2018-01-25T03:09:38.012Z,82.00
2018-01-25T03:12:06.845Z,83.30
2018-01-25T03:14:42.947Z,80.00
2018-01-25T03:17:11.208Z,80.00
2018-01-25T03:19:42.455Z,78.00
2018-01-25T03:22:10.903Z,76.80
2018-01-25T03:24:38.485Z,76.90
2018-01-25T03:27:09.470Z,77.20
2018-01-25T03:29:39.947Z,77.60
2018-01-25T03:32:09.951Z,76.70
2018-01-25T03:34:41.606Z,76.00
2018-01-25T03:39:57.900Z,74.70
2018-01-25T03:42:25.703Z,74.50
2018-01-25T03:44:53.846Z,75.30
2018-01-25T03:47:26.155Z,74.70
2018-01-25T03:49:55.447Z,74.60
2018-01-25T03:52:23.044Z,75.70
2018-01-25T03:54:53.275Z,74.70
2018-01-25T03:57:21.822Z,74.80
2018-01-25T03:59:51.579Z,75.10
2018-01-25T04:02:20.682Z,74.40
2018-01-25T04:04:51.198Z,74.30
2018-01-25T04:07:19.475Z,74.20
2018-01-25T04:09:47.092Z,74.00
2018-01-25T04:12:21.082Z,75.00
2018-01-25T04:14:48.668Z,74.40
2018-01-25T04:17:17.455Z,75.10
2018-01-25T04:19:45.068Z,74.30
2018-01-25T04:22:15.820Z,75.80
2018-01-25T04:30:13.420Z,75.40
2018-01-25T04:40:43.039Z,76.20
2018-01-25T04:43:12.868Z,78.70
2018-01-25T04:45:49.497Z,76.10
2018-01-25T04:48:25.188Z,75.70
2018-01-25T04:50:55.100Z,75.70
2018-01-25T04:53:27.374Z,75.00
2018-01-25T04:55:59.503Z,73.30
2018-01-25T04:58:30.767Z,73.30
2018-01-25T05:01:00.738Z,74.10
2018-01-25T05:06:11.736Z,73.90
2018-01-25T05:08:42.339Z,74.00
2018-01-25T05:11:12.154Z,73.90
2018-01-25T05:13:42.464Z,73.70
2018-01-25T05:16:17.622Z,74.40
2018-01-25T05:18:49.620Z,74.90
2018-01-25T05:21:21.768Z,74.90
2018-01-25T05:23:59.956Z,73.90
2018-01-25T05:26:31.328Z,73.90
2018-01-25T05:32:06.032Z,74.30
2018-01-25T05:34:42.588Z,74.40
2018-01-25T05:37:12.145Z,74.40
2018-01-25T05:39:44.388Z,76.10
2018-01-25T05:42:13.714Z,76.10
2018-01-25T05:44:45.287Z,78.00
2018-01-25T05:47:15.178Z,76.90
2018-01-25T05:49:42.781Z,76.40
2018-01-25T05:52:14.249Z,78.40
2018-01-25T05:54:46.014Z,77.90
2018-01-25T05:57:15.196Z,76.00
2018-01-25T05:59:42.772Z,76.30
2018-01-25T06:02:10.437Z,74.80
2018-01-25T06:04:41.236Z,75.60
2018-01-25T06:07:09.197Z,75.80
2018-01-25T06:09:36.876Z,77.80
2018-01-25T06:12:08.191Z,77.10
2018-01-25T06:14:38.896Z,80.30
2018-01-25T06:17:14.336Z,81.80
2018-01-25T06:19:44.738Z,82.80
2018-01-25T06:22:15.677Z,84.80
2018-01-25T06:24:46.274Z,85.70
2018-01-25T06:27:14.483Z,85.60
2018-01-25T06:29:43.670Z,87.70
2018-01-25T06:32:12.188Z,89.10
2018-01-25T06:34:41.016Z,88.70
2018-01-25T06:37:11.751Z,89.80
2018-01-25T06:39:43.280Z,89.20
2018-01-25T06:42:14.429Z,89.20
2018-01-25T06:44:44.947Z,90.70
2018-01-25T06:47:16.407Z,90.30
2018-01-25T06:49:51.166Z,89.20
2018-01-25T06:52:22.317Z,89.20
2018-01-25T06:54:57.077Z,89.30
2018-01-25T07:00:03.072Z,88.80
2018-01-25T07:02:35.377Z,90.20
2018-01-25T07:05:09.132Z,86.30
2018-01-25T07:07:38.356Z,89.00
2018-01-25T07:10:08.762Z,90.20
2018-01-25T07:12:38.196Z,90.20
2018-01-25T07:15:07.104Z,90.90
2018-01-25T07:17:36.521Z,90.50
2018-01-25T07:20:05.760Z,90.50
2018-01-25T07:22:34.045Z,90.20
2018-01-25T07:25:05.769Z,90.90
2018-01-25T07:27:33.650Z,90.90
2018-01-25T07:30:02.232Z,91.40
2018-01-25T07:32:30.749Z,91.30
2018-01-25T07:34:58.637Z,91.90
2018-01-25T07:37:27.104Z,92.00
2018-01-25T07:39:55.577Z,93.80
2018-01-25T07:42:23.111Z,93.80
2018-01-25T07:44:50.831Z,94.60
2018-01-25T07:47:18.387Z,94.70
2018-01-25T07:49:45.997Z,94.40
2018-01-25T07:52:13.606Z,94.70
2018-01-25T07:54:43.433Z,94.10
2018-01-25T07:57:16.556Z,94.00
2018-01-25T07:59:44.974Z,93.80
2018-01-25T08:02:12.905Z,94.10
2018-01-25T08:04:40.683Z,95.30
2018-01-25T08:07:09.074Z,95.70
2018-01-25T08:09:37.608Z,95.70
2018-01-25T08:12:06.054Z,95.80
2018-01-25T08:14:33.671Z,96.20
2018-01-25T08:17:01.241Z,95.80
2018-01-25T08:19:28.831Z,95.60
2018-01-25T08:21:56.597Z,94.30
2018-01-25T08:24:25.019Z,94.10
2018-01-25T08:26:53.313Z,93.60
2018-01-25T08:29:21.352Z,94.40
2018-01-25T08:31:49.665Z,93.20
2018-01-25T08:34:18.052Z,93.20
2018-01-25T08:36:45.620Z,91.70
2018-01-25T08:39:13.934Z,89.60
2018-01-25T08:41:41.472Z,89.60
2018-01-25T08:44:10.391Z,90.80
2018-01-25T08:46:37.926Z,90.80
2018-01-25T08:49:06.422Z,90.60
2018-01-25T08:51:35.637Z,89.10
2018-01-25T08:54:03.242Z,84.90
2018-01-25T08:56:30.745Z,82.60
2018-01-25T08:58:58.314Z,82.80
2018-01-25T09:01:25.862Z,79.70
2018-01-25T09:03:53.441Z,77.30
2018-01-25T09:06:21.447Z,80.00
2018-01-25T09:08:49.572Z,80.30
2018-01-25T09:11:17.116Z,80.30
2018-01-25T09:13:44.686Z,76.10
2018-01-25T09:16:12.216Z,72.00
2018-01-25T09:18:41.436Z,79.30
2018-01-25T09:21:08.978Z,79.30
2018-01-25T09:23:36.545Z,84.60
2018-01-25T09:26:04.082Z,85.20
2018-01-25T09:28:31.667Z,84.70
2018-01-25T09:30:59.213Z,85.00
2018-01-25T09:33:27.364Z,85.00
2018-01-25T09:35:55.662Z,84.50
2018-01-25T09:38:24.005Z,83.90
2018-01-25T09:40:54.007Z,83.70
2018-01-25T09:43:22.996Z,81.70
2018-01-25T09:45:51.515Z,80.90
2018-01-25T09:48:19.959Z,81.20
2018-01-25T09:50:47.594Z,76.30
2018-01-25T09:53:15.263Z,77.30
2018-01-25T09:55:42.818Z,76.00
2018-01-25T09:58:10.432Z,66.50
2018-01-25T10:00:37.982Z,61.40
2018-01-25T10:03:06.265Z,60.70
2018-01-25T10:05:33.866Z,63.80
2018-01-25T10:08:01.423Z,64.00
2018-01-25T10:10:29.031Z,61.30
2018-01-25T10:12:56.601Z,60.70
2018-01-25T10:15:24.187Z,58.20
2018-01-25T10:17:51.818Z,58.00
2018-01-25T10:20:19.480Z,59.70
2018-01-25T10:22:47.025Z,57.20
2018-01-25T10:25:15.167Z,57.20
2018-01-25T10:27:42.722Z,56.60
2018-01-25T10:30:10.301Z,56.40
2018-01-25T10:32:37.860Z,56.10
2018-01-25T10:35:05.520Z,56.20
2018-01-25T10:37:33.818Z,56.60
2018-01-25T10:40:02.342Z,56.60
2018-01-25T10:42:29.876Z,57.10
2018-01-25T10:44:58.216Z,55.10
2018-01-25T10:47:25.786Z,55.10
2018-01-25T10:49:53.367Z,56.10
2018-01-25T10:52:20.902Z,55.80
2018-01-25T10:54:48.478Z,55.50
2018-01-25T10:57:16.012Z,54.80
2018-01-25T10:59:43.591Z,55.40
2018-01-25T11:02:11.902Z,60.00
2018-01-25T11:04:40.230Z,58.60
2018-01-25T11:07:07.764Z,58.50
2018-01-25T11:09:36.102Z,56.90
2018-01-25T11:12:03.655Z,56.90
2018-01-25T11:14:31.223Z,56.50
2018-01-25T11:16:58.755Z,56.80
2018-01-25T11:19:26.328Z,60.90
2018-01-25T11:21:54.630Z,64.20
2018-01-25T11:24:22.964Z,60.20
2018-01-25T11:26:50.497Z,60.10
2018-01-25T11:29:20.035Z,56.90
2018-01-25T11:31:47.567Z,56.80
2018-01-25T11:34:15.143Z,54.50
2018-01-25T11:36:43.438Z,53.80
2018-01-25T11:39:11.007Z,53.70
2018-01-25T11:41:38.539Z,52.80
2018-01-25T11:44:06.107Z,54.90
2018-01-25T11:46:33.642Z,52.50
2018-01-25T11:49:01.970Z,53.10
2018-01-25T11:51:29.507Z,52.90
2018-01-25T11:53:57.850Z,52.80
2018-01-25T11:56:25.369Z,52.70
2018-01-25T11:58:53.711Z,52.90
2018-01-25T12:01:21.234Z,52.30
2018-01-25T12:03:48.802Z,52.20
2018-01-25T12:06:16.354Z,52.80
2018-01-25T12:08:43.930Z,53.10
2018-01-25T12:11:11.459Z,52.20
2018-01-25T12:13:39.041Z,52.80
2018-01-25T12:16:06.571Z,52.50
2018-01-25T12:18:34.903Z,53.10
2018-01-25T12:21:02.429Z,53.10
2018-01-25T12:23:30.771Z,51.90
2018-01-25T12:25:58.318Z,52.50
2018-01-25T12:28:25.896Z,52.90
2018-01-25T12:30:53.428Z,51.60
2018-01-25T12:33:20.999Z,52.10
2018-01-25T12:35:48.535Z,51.40
2018-01-25T12:38:16.111Z,51.50
2018-01-25T12:40:43.639Z,51.30
2018-01-25T12:43:11.968Z,51.50
2018-01-25T12:45:39.500Z,51.50
2018-01-25T12:48:07.830Z,54.40
2018-01-25T12:50:35.372Z,54.40
2018-01-25T12:53:02.938Z,51.50
2018-01-25T12:55:31.237Z,50.00
2018-01-25T12:57:58.813Z,50.00
2018-01-25T13:00:26.356Z,49.70
2018-01-25T13:02:55.011Z,50.60
2018-01-25T13:05:22.538Z,50.90
2018-01-25T13:07:50.106Z,50.20
2018-01-25T13:10:18.405Z,51.70
2018-01-25T13:12:45.979Z,51.60
2018-01-25T13:15:14.265Z,50.60
2018-01-25T13:17:42.604Z,53.90
2018-01-25T13:20:10.144Z,53.80
2018-01-25T13:22:37.728Z,54.30
2018-01-25T13:25:05.263Z,54.70
2018-01-25T13:27:33.594Z,57.50
2018-01-25T13:30:01.129Z,57.30
2018-01-25T13:32:29.463Z,57.40
2018-01-25T13:34:56.982Z,57.10
2018-01-25T13:37:24.565Z,58.30
2018-01-25T13:39:52.867Z,58.10
2018-01-25T13:42:21.202Z,57.20
2018-01-25T13:44:48.726Z,57.10
2018-01-25T13:47:17.067Z,59.60
2018-01-25T13:49:44.603Z,59.60
2018-01-25T13:52:17.749Z,61.80
2018-01-25T13:54:45.308Z,63.00
2018-01-25T13:57:12.881Z,62.60
2018-01-25T13:59:40.407Z,65.10
2018-01-25T14:02:08.755Z,61.40
2018-01-25T14:04:36.327Z,61.20
2018-01-25T14:07:03.894Z,61.60
2018-01-25T14:09:31.418Z,61.30
2018-01-25T14:11:59.758Z,68.40
2018-01-25T14:14:27.290Z,68.40
2018-01-25T14:16:54.865Z,69.20
2018-01-25T14:19:22.415Z,71.30
2018-01-25T14:21:50.007Z,71.50
2018-01-25T14:24:18.353Z,74.30
2018-01-25T14:26:45.875Z,74.20
2018-01-25T14:29:14.214Z,76.60
2018-01-25T14:31:41.742Z,76.50
2018-01-25T14:34:10.121Z,76.70
2018-01-25T14:36:38.418Z,77.30
2018-01-25T14:39:06.762Z,75.90
2018-01-25T14:41:34.347Z,75.80
2018-01-25T14:44:01.875Z,77.20
2018-01-25T14:46:29.493Z,78.60
2018-01-25T14:48:57.052Z,77.00
2018-01-25T14:51:24.627Z,77.90
2018-01-25T14:53:52.152Z,79.00
2018-01-25T14:56:19.718Z,80.50
2018-01-25T14:58:48.050Z,72.90
2018-01-25T15:01:15.630Z,72.80
2018-01-25T15:03:43.163Z,75.50
2018-01-25T15:06:11.500Z,80.60
2018-01-25T15:08:39.026Z,80.50
2018-01-25T15:11:07.358Z,81.00
2018-01-25T15:13:34.904Z,81.00
2018-01-25T15:16:02.477Z,83.40
2018-01-25T15:18:30.011Z,84.60
2018-01-25T15:20:57.591Z,83.90
2018-01-25T15:23:25.124Z,82.40
2018-01-25T15:25:58.402Z,85.20
2018-01-25T15:28:25.934Z,84.80
2018-01-25T15:30:53.509Z,86.30
2018-01-25T15:33:21.043Z,87.20
2018-01-25T15:35:48.613Z,86.60
2018-01-25T15:38:16.138Z,86.00
2018-01-25T15:40:43.706Z,85.80
2018-01-25T15:43:11.239Z,86.60
2018-01-25T15:45:38.833Z,87.70
2018-01-25T15:48:06.428Z,87.70
2018-01-25T15:50:34.068Z,87.30
2018-01-25T15:53:01.599Z,88.10
2018-01-25T15:55:29.175Z,88.60
2018-01-25T15:57:56.778Z,88.60
2018-01-25T16:00:24.354Z,86.00
2018-01-25T16:02:51.886Z,87.40
2018-01-25T16:05:19.487Z,88.20
2018-01-25T16:07:47.033Z,88.80
2018-01-25T16:10:14.622Z,89.20
2018-01-25T16:12:42.164Z,89.00
2018-01-25T16:15:10.508Z,89.00
2018-01-25T16:17:38.048Z,88.20
2018-01-25T16:20:05.645Z,88.90
2018-01-25T16:22:33.196Z,87.50
2018-01-25T16:25:01.790Z,89.00
2018-01-25T16:27:30.088Z,90.40
2018-01-25T16:29:58.463Z,90.00
2018-01-25T16:32:26.933Z,90.10
2018-01-25T16:34:55.640Z,90.00
2018-01-25T16:37:23.311Z,90.30
2018-01-25T16:39:50.930Z,90.80
2018-01-25T16:42:20.484Z,90.90
2018-01-25T16:44:48.138Z,91.00
2018-01-25T16:47:15.795Z,90.90
2018-01-25T16:49:43.481Z,90.40
2018-01-25T16:52:11.091Z,91.00
2018-01-25T16:54:38.676Z,91.50
2018-01-25T16:57:06.352Z,91.40
2018-01-25T16:59:34.063Z,91.50
2018-01-25T17:02:02.693Z,91.60
2018-01-25T17:04:31.270Z,91.00
2018-01-25T17:07:01.736Z,90.80
2018-01-25T17:09:30.396Z,90.90
2018-01-25T17:11:58.151Z,91.20
2018-01-25T17:14:28.144Z,91.40
2018-01-25T17:16:57.875Z,91.30
2018-01-25T17:19:26.563Z,91.30
2018-01-25T17:21:56.364Z,91.40
2018-01-25T17:24:26.771Z,91.30
2018-01-25T17:26:54.361Z,91.50
2018-01-25T17:29:22.717Z,91.80
2018-01-25T17:31:50.263Z,91.80
2018-01-25T17:34:17.923Z,91.90
2018-01-25T17:36:45.522Z,91.70
2018-01-25T17:39:13.895Z,91.40
2018-01-25T17:41:44.103Z,91.70
2018-01-25T17:44:13.417Z,91.90
2018-01-25T17:46:41.803Z,92.30
2018-01-25T17:49:11.282Z,92.30
2018-01-25T17:51:39.949Z,92.20
2018-01-25T17:54:12.297Z,92.10
2018-01-25T17:56:44.414Z,92.10
2018-01-25T17:59:14.269Z,92.00
2018-01-25T18:01:43.363Z,91.90
2018-01-25T18:04:12.374Z,91.80
2018-01-25T18:06:46.833Z,91.90
2018-01-25T18:09:16.774Z,92.10
2018-01-25T18:11:48.542Z,92.10
2018-01-25T18:14:17.019Z,92.30
2018-01-25T18:16:45.740Z,92.40
2018-01-25T18:19:14.119Z,92.30
2018-01-25T18:21:42.555Z,92.30
2018-01-25T18:24:10.902Z,92.30
2018-01-25T18:26:38.479Z,92.30
2018-01-25T18:29:06.056Z,92.20
2018-01-25T18:31:33.593Z,92.20
2018-01-25T18:34:02.246Z,92.70
2018-01-25T18:36:30.002Z,92.80
2018-01-25T18:38:57.796Z,92.60
2018-01-25T18:41:25.367Z,94.00
2018-01-25T18:43:52.940Z,94.60
2018-01-25T18:46:20.669Z,95.20
2018-01-25T18:48:48.265Z,95.00
2018-01-25T18:51:15.837Z,94.60
2018-01-25T18:53:43.474Z,93.80
2018-01-25T18:56:12.038Z,93.70
2018-01-25T18:58:40.641Z,93.40
2018-01-25T19:01:08.308Z,93.30
2018-01-25T19:03:36.063Z,93.50
2018-01-25T19:06:03.828Z,92.90
2018-01-25T19:08:31.485Z,93.50
2018-01-25T19:11:00.992Z,94.00
2018-01-25T19:13:28.756Z,93.60
2018-01-25T19:15:56.356Z,92.90
2018-01-25T19:18:25.749Z,92.70
2018-01-25T19:20:53.364Z,93.50
2018-01-25T19:23:21.183Z,94.10
2018-01-25T19:25:49.900Z,94.60
2018-01-25T19:28:19.958Z,93.90
2018-01-25T19:30:50.111Z,93.80
2018-01-25T19:33:20.745Z,93.80
2018-01-25T19:38:43.958Z,94.30
2018-01-25T19:41:16.680Z,94.40
2018-01-25T19:43:46.463Z,94.90
2018-01-25T19:46:14.279Z,94.10
2018-01-25T19:48:42.952Z,94.10
2018-01-25T19:51:15.131Z,94.20
2018-01-25T19:53:44.823Z,93.90
2018-01-25T19:56:13.425Z,93.90
2018-01-25T19:58:41.273Z,94.10
2018-01-25T20:01:09.713Z,94.40
2018-01-25T20:03:39.381Z,94.30
2018-01-25T20:06:07.527Z,94.80
2018-01-25T20:08:35.550Z,94.50
2018-01-25T20:11:10.634Z,94.50
2018-01-25T20:13:39.976Z,94.50
2018-01-25T20:16:07.638Z,94.50
2018-01-25T20:18:35.281Z,95.20
2018-01-25T20:21:03.637Z,96.20
2018-01-25T20:23:31.266Z,96.10
2018-01-25T20:25:59.634Z,94.80
2018-01-25T20:28:27.377Z,94.80
2018-01-25T20:30:55.720Z,94.60
2018-01-25T20:33:25.015Z,94.50
2018-01-25T20:35:52.970Z,94.50
2018-01-25T20:38:21.597Z,94.60
2018-01-25T20:40:49.988Z,94.30
2018-01-25T20:43:17.589Z,94.60
2018-01-25T20:45:46.127Z,94.30
2018-01-25T20:48:16.391Z,94.30
2018-01-25T20:50:44.038Z,95.00
2018-01-25T20:53:11.675Z,95.50
2018-01-25T20:55:40.793Z,95.20
2018-01-25T20:58:08.484Z,95.20
2018-01-25T21:00:36.988Z,95.20
2018-01-25T21:03:05.906Z,95.00
2018-01-25T21:05:34.493Z,95.10
2018-01-25T21:08:02.220Z,95.10
2018-01-25T21:10:30.848Z,95.10
2018-01-25T21:12:58.392Z,95.10
2018-01-25T21:15:27.223Z,95.80
2018-01-25T21:17:54.831Z,95.80
2018-01-25T21:20:22.485Z,96.20
2018-01-25T21:22:52.107Z,95.80
2018-01-25T21:25:23.033Z,94.20
2018-01-25T21:27:53.675Z,93.40
2018-01-25T21:30:25.984Z,93.70
2018-01-25T21:32:57.551Z,94.00
2018-01-25T21:35:26.441Z,94.80
2018-01-25T21:37:56.560Z,95.10
2018-01-25T21:40:25.338Z,95.50
2018-01-25T21:45:40.410Z,96.10
2018-01-25T21:48:09.251Z,97.40
2018-01-25T21:50:43.332Z,97.80
2018-01-25T21:53:16.696Z,97.10
2018-01-25T21:55:50.050Z,95.70
2018-01-25T21:58:19.400Z,95.70
2018-01-25T22:00:47.139Z,94.40
2018-01-25T22:03:15.348Z,95.40
2018-01-25T22:05:56.963Z,95.10
2018-01-25T22:08:26.834Z,95.10
2018-01-25T22:11:15.727Z,97.10
2018-01-25T22:13:47.752Z,97.10
2018-01-25T22:16:21.406Z,95.50
2018-01-25T22:18:53.036Z,95.10
2018-01-25T22:21:28.539Z,95.90
2018-01-25T22:24:02.904Z,97.30
2018-01-25T22:26:31.275Z,97.00
2018-01-25T22:28:59.160Z,97.20
2018-01-25T22:31:36.930Z,97.90
2018-01-25T22:34:05.504Z,97.70
2018-01-25T22:36:45.628Z,97.50
2018-01-25T22:39:26.382Z,97.50
2018-01-25T22:41:58.193Z,98.00
2018-01-25T22:44:25.983Z,97.40
2018-01-25T22:49:36.037Z,96.90
2018-01-25T22:52:06.802Z,97.10
2018-01-25T22:54:35.295Z,97.20
2018-01-25T23:05:16.501Z,96.50
2018-01-25T23:07:51.622Z,96.50
2018-01-25T23:10:19.230Z,97.10
2018-01-25T23:12:47.112Z,97.40
2018-01-25T23:15:19.575Z,97.10
2018-01-25T23:20:34.811Z,97.20
2018-01-25T23:23:05.372Z,97.10
2018-01-25T23:28:19.491Z,96.20
2018-01-25T23:30:53.331Z,96.10
2018-01-25T23:33:31.961Z,96.10
2018-01-25T23:36:00.264Z,96.30
2018-01-25T23:38:35.930Z,96.80
2018-01-25T23:41:03.579Z,97.40
2018-01-25T23:43:31.201Z,96.90
2018-01-25T23:45:59.550Z,96.90
2018-01-25T23:48:28.207Z,96.90
2018-01-25T23:50:55.867Z,96.90
2018-01-25T23:53:24.385Z,95.80
2018-01-25T23:55:52.150Z,95.80
2018-01-25T23:58:19.906Z,95.80
